sensor_id;sensor_type;location;lat;lon;timestamp;pressure;altitude;pressure_sealevel;temperature
11424;BMP180;5768;51.476;7.210;2023-11-21T00:04:43;99671.00;;;11.20
11424;BMP180;5768;51.476;7.210;2023-11-21T00:09:48;99678.00;;;11.20
11424;BMP180;5768;51.476;7.210;2023-11-21T00:14:50;99670.00;;;11.20
11424;BMP180;5768;51.476;7.210;2023-11-21T00:19:52;99667.00;;;11.20
11424;BMP180;5768;51.476;7.210;2023-11-21T00:24:56;99677.00;;;11.40
11424;BMP180;5768;51.476;7.210;2023-11-21T00:29:58;99680.00;;;11.40
11424;BMP180;5768;51.476;7.210;2023-11-21T00:35:01;99684.00;;;11.50
11424;BMP180;5768;51.476;7.210;2023-11-21T00:40:06;99693.00;;;11.50
11424;BMP180;5768;51.476;7.210;2023-11-21T00:45:09;99687.00;;;11.60
11424;BMP180;5768;51.476;7.210;2023-11-21T00:50:12;99686.00;;;11.60
11424;BMP180;5768;51.476;7.210;2023-11-21T00:55:15;99691.00;;;11.60
11424;BMP180;5768;51.476;7.210;2023-11-21T01:00:19;99684.00;;;11.60
11424;BMP180;5768;51.476;7.210;2023-11-21T01:05:21;99686.00;;;11.70
11424;BMP180;5768;51.476;7.210;2023-11-21T01:10:25;99692.00;;;11.70
11424;BMP180;5768;51.476;7.210;2023-11-21T01:15:27;99700.00;;;11.70
11424;BMP180;5768;51.476;7.210;2023-11-21T01:20:29;99692.00;;;11.70
11424;BMP180;5768;51.476;7.210;2023-11-21T01:25:33;99708.00;;;11.70
11424;BMP180;5768;51.476;7.210;2023-11-21T01:30:35;99715.00;;;11.70
11424;BMP180;5768;51.476;7.210;2023-11-21T01:35:40;99705.00;;;11.70
11424;BMP180;5768;51.476;7.210;2023-11-21T01:40:43;99717.00;;;11.90
11424;BMP180;5768;51.476;7.210;2023-11-21T01:45:45;99723.00;;;12.00
11424;BMP180;5768;51.476;7.210;2023-11-21T01:50:48;99716.00;;;12.10
11424;BMP180;5768;51.476;7.210;2023-11-21T01:55:53;99718.00;;;12.10
11424;BMP180;5768;51.476;7.210;2023-11-21T02:00:55;99724.00;;;12.10
11424;BMP180;5768;51.476;7.210;2023-11-21T02:05:57;99719.00;;;12.10
11424;BMP180;5768;51.476;7.210;2023-11-21T02:11:01;99727.00;;;12.00
11424;BMP180;5768;51.476;7.210;2023-11-21T02:16:04;99733.00;;;12.00
11424;BMP180;5768;51.476;7.210;2023-11-21T02:21:07;99738.00;;;12.10
11424;BMP180;5768;51.476;7.210;2023-11-21T02:26:12;99740.00;;;12.10
11424;BMP180;5768;51.476;7.210;2023-11-21T02:31:15;99745.00;;;12.10
11424;BMP180;5768;51.476;7.210;2023-11-21T02:36:17;99748.00;;;12.10
11424;BMP180;5768;51.476;7.210;2023-11-21T02:41:20;99750.00;;;12.10
11424;BMP180;5768;51.476;7.210;2023-11-21T02:46:23;99753.00;;;12.10
11424;BMP180;5768;51.476;7.210;2023-11-21T02:51:25;99761.00;;;12.20
11424;BMP180;5768;51.476;7.210;2023-11-21T02:56:28;99764.00;;;12.10
11424;BMP180;5768;51.476;7.210;2023-11-21T03:01:31;99771.00;;;12.10
11424;BMP180;5768;51.476;7.210;2023-11-21T03:06:33;99770.00;;;12.10
11424;BMP180;5768;51.476;7.210;2023-11-21T03:11:37;99780.00;;;12.10
11424;BMP180;5768;51.476;7.210;2023-11-21T03:16:39;99776.00;;;12.10
11424;BMP180;5768;51.476;7.210;2023-11-21T03:21:41;99774.00;;;12.10
11424;BMP180;5768;51.476;7.210;2023-11-21T03:26:48;99778.00;;;12.10
11424;BMP180;5768;51.476;7.210;2023-11-21T03:31:51;99778.00;;;12.20
11424;BMP180;5768;51.476;7.210;2023-11-21T03:36:54;99790.00;;;12.10
11424;BMP180;5768;51.476;7.210;2023-11-21T03:41:58;99789.00;;;12.10
11424;BMP180;5768;51.476;7.210;2023-11-21T03:47:00;99810.00;;;12.10
11424;BMP180;5768;51.476;7.210;2023-11-21T03:52:02;99800.00;;;12.20
11424;BMP180;5768;51.476;7.210;2023-11-21T03:57:06;99825.00;;;12.20
11424;BMP180;5768;51.476;7.210;2023-11-21T04:02:09;99824.00;;;12.20
11424;BMP180;5768;51.476;7.210;2023-11-21T04:07:11;99832.00;;;12.20
11424;BMP180;5768;51.476;7.210;2023-11-21T04:12:15;99831.00;;;12.20
11424;BMP180;5768;51.476;7.210;2023-11-21T04:17:18;99835.00;;;12.20
11424;BMP180;5768;51.476;7.210;2023-11-21T04:22:20;99832.00;;;12.10
11424;BMP180;5768;51.476;7.210;2023-11-21T04:27:24;99834.00;;;12.00
11424;BMP180;5768;51.476;7.210;2023-11-21T04:32:26;99845.00;;;11.80
11424;BMP180;5768;51.476;7.210;2023-11-21T04:37:28;99839.00;;;11.70
11424;BMP180;5768;51.476;7.210;2023-11-21T04:42:34;99843.00;;;11.60
11424;BMP180;5768;51.476;7.210;2023-11-21T04:47:36;99848.00;;;11.50
11424;BMP180;5768;51.476;7.210;2023-11-21T04:52:39;99853.00;;;11.40
11424;BMP180;5768;51.476;7.210;2023-11-21T04:57:42;99851.00;;;11.20
11424;BMP180;5768;51.476;7.210;2023-11-21T05:02:45;99845.00;;;11.10
11424;BMP180;5768;51.476;7.210;2023-11-21T05:07:47;99855.00;;;11.00
11424;BMP180;5768;51.476;7.210;2023-11-21T05:12:52;99857.00;;;11.00
11424;BMP180;5768;51.476;7.210;2023-11-21T05:17:54;99866.00;;;11.00
11424;BMP180;5768;51.476;7.210;2023-11-21T05:23:00;99872.00;;;11.10
11424;BMP180;5768;51.476;7.210;2023-11-21T05:28:04;99869.00;;;11.30
11424;BMP180;5768;51.476;7.210;2023-11-21T05:33:07;99884.00;;;11.40
11424;BMP180;5768;51.476;7.210;2023-11-21T05:38:09;99901.00;;;11.60
11424;BMP180;5768;51.476;7.210;2023-11-21T05:43:15;99904.00;;;11.70
11424;BMP180;5768;51.476;7.210;2023-11-21T05:48:19;99908.00;;;11.70
11424;BMP180;5768;51.476;7.210;2023-11-21T05:53:22;99915.00;;;11.70
11424;BMP180;5768;51.476;7.210;2023-11-21T05:58:25;99917.00;;;11.60
11424;BMP180;5768;51.476;7.210;2023-11-21T06:03:28;99937.00;;;11.50
11424;BMP180;5768;51.476;7.210;2023-11-21T06:08:30;99934.00;;;11.50
11424;BMP180;5768;51.476;7.210;2023-11-21T06:13:34;99950.00;;;11.60
11424;BMP180;5768;51.476;7.210;2023-11-21T06:18:36;99945.00;;;11.70
11424;BMP180;5768;51.476;7.210;2023-11-21T06:23:39;99959.00;;;11.80
11424;BMP180;5768;51.476;7.210;2023-11-21T06:28:43;99972.00;;;11.80
11424;BMP180;5768;51.476;7.210;2023-11-21T06:33:45;99981.00;;;11.80
11424;BMP180;5768;51.476;7.210;2023-11-21T06:38:48;99978.00;;;11.90
11424;BMP180;5768;51.476;7.210;2023-11-21T06:43:51;99988.00;;;11.90
11424;BMP180;5768;51.476;7.210;2023-11-21T06:48:54;99978.00;;;11.90
11424;BMP180;5768;51.476;7.210;2023-11-21T06:53:59;99988.00;;;11.90
11424;BMP180;5768;51.476;7.210;2023-11-21T06:59:02;100002.00;;;12.00
11424;BMP180;5768;51.476;7.210;2023-11-21T07:04:06;100012.00;;;12.00
11424;BMP180;5768;51.476;7.210;2023-11-21T07:09:11;100011.00;;;12.10
11424;BMP180;5768;51.476;7.210;2023-11-21T07:14:19;100029.00;;;12.20
11424;BMP180;5768;51.476;7.210;2023-11-21T07:19:22;100025.00;;;12.30
11424;BMP180;5768;51.476;7.210;2023-11-21T07:24:24;100030.00;;;12.40
11424;BMP180;5768;51.476;7.210;2023-11-21T07:29:28;100045.00;;;12.50
11424;BMP180;5768;51.476;7.210;2023-11-21T07:34:31;100047.00;;;12.50
11424;BMP180;5768;51.476;7.210;2023-11-21T07:39:33;100053.00;;;12.60
11424;BMP180;5768;51.476;7.210;2023-11-21T07:44:37;100047.00;;;12.60
11424;BMP180;5768;51.476;7.210;2023-11-21T07:49:40;100049.00;;;12.70
11424;BMP180;5768;51.476;7.210;2023-11-21T07:54:45;100061.00;;;12.70
11424;BMP180;5768;51.476;7.210;2023-11-21T07:59:49;100056.00;;;12.80
11424;BMP180;5768;51.476;7.210;2023-11-21T08:04:54;100069.00;;;13.00
11424;BMP180;5768;51.476;7.210;2023-11-21T08:10:00;100086.00;;;13.10
11424;BMP180;5768;51.476;7.210;2023-11-21T08:15:08;100099.00;;;13.30
11424;BMP180;5768;51.476;7.210;2023-11-21T08:20:14;100102.00;;;13.40
11424;BMP180;5768;51.476;7.210;2023-11-21T08:25:17;100121.00;;;13.40
11424;BMP180;5768;51.476;7.210;2023-11-21T08:30:22;100138.00;;;13.40
11424;BMP180;5768;51.476;7.210;2023-11-21T08:35:25;100157.00;;;13.30
11424;BMP180;5768;51.476;7.210;2023-11-21T08:40:30;100167.00;;;13.20
11424;BMP180;5768;51.476;7.210;2023-11-21T08:45:34;100161.00;;;13.10
11424;BMP180;5768;51.476;7.210;2023-11-21T08:50:40;100158.00;;;13.10
11424;BMP180;5768;51.476;7.210;2023-11-21T08:55:42;100164.00;;;13.10
11424;BMP180;5768;51.476;7.210;2023-11-21T09:00:46;100172.00;;;13.10
11424;BMP180;5768;51.476;7.210;2023-11-21T09:05:50;100166.00;;;13.30
11424;BMP180;5768;51.476;7.210;2023-11-21T09:10:52;100177.00;;;13.40
11424;BMP180;5768;51.476;7.210;2023-11-21T09:15:59;100183.00;;;13.40
11424;BMP180;5768;51.476;7.210;2023-11-21T09:21:06;100200.00;;;13.50
11424;BMP180;5768;51.476;7.210;2023-11-21T09:26:09;100188.00;;;13.60
11424;BMP180;5768;51.476;7.210;2023-11-21T09:31:13;100203.00;;;13.60
11424;BMP180;5768;51.476;7.210;2023-11-21T09:36:17;100208.00;;;13.70
11424;BMP180;5768;51.476;7.210;2023-11-21T09:41:30;100217.00;;;13.80
11424;BMP180;5768;51.476;7.210;2023-11-21T09:46:39;100227.00;;;13.90
11424;BMP180;5768;51.476;7.210;2023-11-21T09:51:43;100230.00;;;13.90
11424;BMP180;5768;51.476;7.210;2023-11-21T09:56:46;100223.00;;;13.80
11424;BMP180;5768;51.476;7.210;2023-11-21T10:01:49;100220.00;;;13.80
11424;BMP180;5768;51.476;7.210;2023-11-21T10:06:57;100234.00;;;13.70
11424;BMP180;5768;51.476;7.210;2023-11-21T10:12:06;100220.00;;;13.70
11424;BMP180;5768;51.476;7.210;2023-11-21T10:17:15;100232.00;;;13.70
11424;BMP180;5768;51.476;7.210;2023-11-21T10:22:22;100242.00;;;13.80
11424;BMP180;5768;51.476;7.210;2023-11-21T10:27:27;100245.00;;;14.00
11424;BMP180;5768;51.476;7.210;2023-11-21T10:32:31;100229.00;;;14.20
11424;BMP180;5768;51.476;7.210;2023-11-21T10:37:33;100237.00;;;14.30
11424;BMP180;5768;51.476;7.210;2023-11-21T10:42:36;100248.00;;;14.30
11424;BMP180;5768;51.476;7.210;2023-11-21T10:47:41;100268.00;;;14.40
11424;BMP180;5768;51.476;7.210;2023-11-21T10:52:45;100255.00;;;14.50
11424;BMP180;5768;51.476;7.210;2023-11-21T10:57:50;100262.00;;;14.70
11424;BMP180;5768;51.476;7.210;2023-11-21T11:02:56;100263.00;;;14.80
11424;BMP180;5768;51.476;7.210;2023-11-21T11:08:05;100285.00;;;14.80
11424;BMP180;5768;51.476;7.210;2023-11-21T11:13:13;100269.00;;;14.70
11424;BMP180;5768;51.476;7.210;2023-11-21T11:18:19;100278.00;;;14.70
11424;BMP180;5768;51.476;7.210;2023-11-21T11:23:44;100285.00;;;14.60
11424;BMP180;5768;51.476;7.210;2023-11-21T11:29:08;100261.00;;;14.70
11424;BMP180;5768;51.476;7.210;2023-11-21T11:34:26;100270.00;;;14.80
11424;BMP180;5768;51.476;7.210;2023-11-21T11:39:36;100286.00;;;14.60
11424;BMP180;5768;51.476;7.210;2023-11-21T11:44:52;100283.00;;;14.50
11424;BMP180;5768;51.476;7.210;2023-11-21T11:50:09;100288.00;;;14.50
11424;BMP180;5768;51.476;7.210;2023-11-21T11:55:16;100280.00;;;14.50
11424;BMP180;5768;51.476;7.210;2023-11-21T12:00:22;100301.00;;;14.50
11424;BMP180;5768;51.476;7.210;2023-11-21T12:05:40;100295.00;;;14.50
11424;BMP180;5768;51.476;7.210;2023-11-21T12:10:47;100304.00;;;14.40
11424;BMP180;5768;51.476;7.210;2023-11-21T12:15:51;100317.00;;;14.20
11424;BMP180;5768;51.476;7.210;2023-11-21T12:20:58;100317.00;;;14.20
11424;BMP180;5768;51.476;7.210;2023-11-21T12:26:01;100321.00;;;14.20
11424;BMP180;5768;51.476;7.210;2023-11-21T12:31:05;100324.00;;;14.20
11424;BMP180;5768;51.476;7.210;2023-11-21T12:36:11;100317.00;;;14.20
11424;BMP180;5768;51.476;7.210;2023-11-21T12:41:15;100331.00;;;14.30
11424;BMP180;5768;51.476;7.210;2023-11-21T12:46:21;100338.00;;;14.30
11424;BMP180;5768;51.476;7.210;2023-11-21T12:51:25;100344.00;;;14.20
11424;BMP180;5768;51.476;7.210;2023-11-21T12:56:27;100351.00;;;14.10
11424;BMP180;5768;51.476;7.210;2023-11-21T13:01:34;100358.00;;;14.10
11424;BMP180;5768;51.476;7.210;2023-11-21T13:06:39;100360.00;;;14.10
11424;BMP180;5768;51.476;7.210;2023-11-21T13:11:42;100369.00;;;14.00
11424;BMP180;5768;51.476;7.210;2023-11-21T13:16:46;100379.00;;;14.00
11424;BMP180;5768;51.476;7.210;2023-11-21T13:22:03;100377.00;;;13.90
11424;BMP180;5768;51.476;7.210;2023-11-21T13:27:06;100389.00;;;13.90
11424;BMP180;5768;51.476;7.210;2023-11-21T13:32:08;100397.00;;;13.80
11424;BMP180;5768;51.476;7.210;2023-11-21T13:37:14;100405.00;;;13.80
11424;BMP180;5768;51.476;7.210;2023-11-21T13:42:17;100407.00;;;13.60
11424;BMP180;5768;51.476;7.210;2023-11-21T13:47:21;100414.00;;;13.70
11424;BMP180;5768;51.476;7.210;2023-11-21T13:52:27;100417.00;;;13.70
11424;BMP180;5768;51.476;7.210;2023-11-21T13:57:34;100409.00;;;13.80
11424;BMP180;5768;51.476;7.210;2023-11-21T14:02:40;100419.00;;;13.80
11424;BMP180;5768;51.476;7.210;2023-11-21T14:07:46;100399.00;;;13.90
11424;BMP180;5768;51.476;7.210;2023-11-21T14:12:49;100422.00;;;13.90
11424;BMP180;5768;51.476;7.210;2023-11-21T14:17:51;100427.00;;;13.80
11424;BMP180;5768;51.476;7.210;2023-11-21T14:22:55;100431.00;;;13.70
11424;BMP180;5768;51.476;7.210;2023-11-21T14:27:58;100438.00;;;13.60
11424;BMP180;5768;51.476;7.210;2023-11-21T14:33:00;100450.00;;;13.60
11424;BMP180;5768;51.476;7.210;2023-11-21T14:38:04;100460.00;;;13.60
11424;BMP180;5768;51.476;7.210;2023-11-21T14:43:07;100461.00;;;13.60
11424;BMP180;5768;51.476;7.210;2023-11-21T14:48:09;100462.00;;;13.60
11424;BMP180;5768;51.476;7.210;2023-11-21T14:53:27;100480.00;;;13.40
11424;BMP180;5768;51.476;7.210;2023-11-21T14:58:43;100493.00;;;13.40
11424;BMP180;5768;51.476;7.210;2023-11-21T15:03:45;100512.00;;;13.40
11424;BMP180;5768;51.476;7.210;2023-11-21T15:08:54;100523.00;;;13.30
11424;BMP180;5768;51.476;7.210;2023-11-21T15:14:19;100522.00;;;13.30
11424;BMP180;5768;51.476;7.210;2023-11-21T15:19:26;100521.00;;;13.30
11424;BMP180;5768;51.476;7.210;2023-11-21T15:24:33;100530.00;;;13.30
11424;BMP180;5768;51.476;7.210;2023-11-21T15:29:35;100543.00;;;13.40
11424;BMP180;5768;51.476;7.210;2023-11-21T15:34:41;100537.00;;;13.40
11424;BMP180;5768;51.476;7.210;2023-11-21T15:39:45;100548.00;;;13.40
11424;BMP180;5768;51.476;7.210;2023-11-21T15:44:47;100568.00;;;13.30
11424;BMP180;5768;51.476;7.210;2023-11-21T15:49:51;100574.00;;;13.20
11424;BMP180;5768;51.476;7.210;2023-11-21T15:54:54;100577.00;;;13.20
11424;BMP180;5768;51.476;7.210;2023-11-21T15:59:59;100580.00;;;13.10
11424;BMP180;5768;51.476;7.210;2023-11-21T16:05:01;100615.00;;;13.00
11424;BMP180;5768;51.476;7.210;2023-11-21T16:10:09;100614.00;;;12.90
11424;BMP180;5768;51.476;7.210;2023-11-21T16:15:13;100633.00;;;12.80
11424;BMP180;5768;51.476;7.210;2023-11-21T16:20:19;100631.00;;;12.60
11424;BMP180;5768;51.476;7.210;2023-11-21T16:25:23;100647.00;;;12.60
11424;BMP180;5768;51.476;7.210;2023-11-21T16:30:25;100652.00;;;12.40
11424;BMP180;5768;51.476;7.210;2023-11-21T16:35:36;100664.00;;;12.30
11424;BMP180;5768;51.476;7.210;2023-11-21T16:40:43;100675.00;;;12.30
11424;BMP180;5768;51.476;7.210;2023-11-21T16:45:47;100684.00;;;12.20
11424;BMP180;5768;51.476;7.210;2023-11-21T16:50:54;100687.00;;;12.20
11424;BMP180;5768;51.476;7.210;2023-11-21T16:55:58;100710.00;;;12.10
11424;BMP180;5768;51.476;7.210;2023-11-21T17:01:04;100733.00;;;12.10
11424;BMP180;5768;51.476;7.210;2023-11-21T17:06:09;100732.00;;;12.10
11424;BMP180;5768;51.476;7.210;2023-11-21T17:11:14;100739.00;;;12.00
11424;BMP180;5768;51.476;7.210;2023-11-21T17:16:18;100747.00;;;12.00
11424;BMP180;5768;51.476;7.210;2023-11-21T17:21:21;100762.00;;;12.00
11424;BMP180;5768;51.476;7.210;2023-11-21T17:26:24;100788.00;;;11.90
11424;BMP180;5768;51.476;7.210;2023-11-21T17:31:28;100778.00;;;11.80
11424;BMP180;5768;51.476;7.210;2023-11-21T17:36:30;100792.00;;;11.70
11424;BMP180;5768;51.476;7.210;2023-11-21T17:41:34;100812.00;;;11.70
11424;BMP180;5768;51.476;7.210;2023-11-21T17:46:37;100808.00;;;11.60
11424;BMP180;5768;51.476;7.210;2023-11-21T17:51:42;100826.00;;;11.60
11424;BMP180;5768;51.476;7.210;2023-11-21T17:56:46;100835.00;;;11.50
11424;BMP180;5768;51.476;7.210;2023-11-21T18:01:50;100835.00;;;11.50
11424;BMP180;5768;51.476;7.210;2023-11-21T18:06:53;100854.00;;;11.50
11424;BMP180;5768;51.476;7.210;2023-11-21T18:12:00;100838.00;;;11.60
11424;BMP180;5768;51.476;7.210;2023-11-21T18:17:03;100853.00;;;11.60
11424;BMP180;5768;51.476;7.210;2023-11-21T18:22:06;100870.00;;;11.60
11424;BMP180;5768;51.476;7.210;2023-11-21T18:27:13;100879.00;;;11.50
11424;BMP180;5768;51.476;7.210;2023-11-21T18:32:16;100889.00;;;11.40
11424;BMP180;5768;51.476;7.210;2023-11-21T18:37:23;100888.00;;;11.40
11424;BMP180;5768;51.476;7.210;2023-11-21T18:42:27;100897.00;;;11.20
11424;BMP180;5768;51.476;7.210;2023-11-21T18:47:30;100912.00;;;11.20
11424;BMP180;5768;51.476;7.210;2023-11-21T18:52:32;100901.00;;;11.20
11424;BMP180;5768;51.476;7.210;2023-11-21T18:57:36;100908.00;;;11.00
11424;BMP180;5768;51.476;7.210;2023-11-21T19:02:38;100909.00;;;10.90
11424;BMP180;5768;51.476;7.210;2023-11-21T19:07:43;100923.00;;;10.90
11424;BMP180;5768;51.476;7.210;2023-11-21T19:12:47;100909.00;;;11.00
11424;BMP180;5768;51.476;7.210;2023-11-21T19:17:51;100943.00;;;11.00
11424;BMP180;5768;51.476;7.210;2023-11-21T19:22:55;100942.00;;;11.00
11424;BMP180;5768;51.476;7.210;2023-11-21T19:27:58;100939.00;;;10.90
11424;BMP180;5768;51.476;7.210;2023-11-21T19:33:01;100943.00;;;10.90
11424;BMP180;5768;51.476;7.210;2023-11-21T19:38:06;100946.00;;;10.90
11424;BMP180;5768;51.476;7.210;2023-11-21T19:43:13;100954.00;;;10.80
11424;BMP180;5768;51.476;7.210;2023-11-21T19:48:17;100946.00;;;10.80
11424;BMP180;5768;51.476;7.210;2023-11-21T19:53:22;100949.00;;;10.90
11424;BMP180;5768;51.476;7.210;2023-11-21T19:58:26;100966.00;;;11.00
11424;BMP180;5768;51.476;7.210;2023-11-21T20:03:30;100962.00;;;11.10
11424;BMP180;5768;51.476;7.210;2023-11-21T20:08:35;100970.00;;;11.10
11424;BMP180;5768;51.476;7.210;2023-11-21T20:13:45;100989.00;;;11.10
11424;BMP180;5768;51.476;7.210;2023-11-21T20:18:54;101000.00;;;11.00
11424;BMP180;5768;51.476;7.210;2023-11-21T20:23:58;101011.00;;;10.80
11424;BMP180;5768;51.476;7.210;2023-11-21T20:29:03;101005.00;;;10.80
11424;BMP180;5768;51.476;7.210;2023-11-21T20:34:05;101014.00;;;10.90
11424;BMP180;5768;51.476;7.210;2023-11-21T20:39:08;101046.00;;;11.10
11424;BMP180;5768;51.476;7.210;2023-11-21T20:44:16;101021.00;;;11.10
11424;BMP180;5768;51.476;7.210;2023-11-21T20:49:18;101029.00;;;11.10
11424;BMP180;5768;51.476;7.210;2023-11-21T20:54:21;101047.00;;;11.10
11424;BMP180;5768;51.476;7.210;2023-11-21T20:59:24;101053.00;;;11.10
11424;BMP180;5768;51.476;7.210;2023-11-21T21:04:27;101049.00;;;11.10
11424;BMP180;5768;51.476;7.210;2023-11-21T21:09:32;101057.00;;;11.10
11424;BMP180;5768;51.476;7.210;2023-11-21T21:14:40;101042.00;;;11.00
11424;BMP180;5768;51.476;7.210;2023-11-21T21:19:55;101046.00;;;11.10
11424;BMP180;5768;51.476;7.210;2023-11-21T21:24:58;101048.00;;;11.10
11424;BMP180;5768;51.476;7.210;2023-11-21T21:30:12;101056.00;;;11.10
11424;BMP180;5768;51.476;7.210;2023-11-21T21:35:22;101061.00;;;11.00
11424;BMP180;5768;51.476;7.210;2023-11-21T21:40:28;101069.00;;;10.90
11424;BMP180;5768;51.476;7.210;2023-11-21T21:45:33;101080.00;;;10.90
11424;BMP180;5768;51.476;7.210;2023-11-21T21:50:36;101087.00;;;10.90
11424;BMP180;5768;51.476;7.210;2023-11-21T21:55:40;101103.00;;;10.90
11424;BMP180;5768;51.476;7.210;2023-11-21T22:00:44;101116.00;;;11.00
11424;BMP180;5768;51.476;7.210;2023-11-21T22:05:47;101129.00;;;11.00
11424;BMP180;5768;51.476;7.210;2023-11-21T22:10:51;101138.00;;;11.00
11424;BMP180;5768;51.476;7.210;2023-11-21T22:15:55;101159.00;;;10.90
11424;BMP180;5768;51.476;7.210;2023-11-21T22:20:58;101163.00;;;10.90
11424;BMP180;5768;51.476;7.210;2023-11-21T22:26:01;101152.00;;;10.90
11424;BMP180;5768;51.476;7.210;2023-11-21T22:31:05;101162.00;;;10.70
11424;BMP180;5768;51.476;7.210;2023-11-21T22:36:13;101150.00;;;10.40
11424;BMP180;5768;51.476;7.210;2023-11-21T22:41:24;101144.00;;;10.40
11424;BMP180;5768;51.476;7.210;2023-11-21T22:46:28;101158.00;;;10.40
11424;BMP180;5768;51.476;7.210;2023-11-21T22:51:30;101158.00;;;10.50
11424;BMP180;5768;51.476;7.210;2023-11-21T22:56:32;101151.00;;;10.60
11424;BMP180;5768;51.476;7.210;2023-11-21T23:01:36;101158.00;;;10.70
11424;BMP180;5768;51.476;7.210;2023-11-21T23:06:38;101171.00;;;10.70
11424;BMP180;5768;51.476;7.210;2023-11-21T23:11:41;101190.00;;;10.60
11424;BMP180;5768;51.476;7.210;2023-11-21T23:16:45;101187.00;;;10.40
11424;BMP180;5768;51.476;7.210;2023-11-21T23:21:51;101180.00;;;10.20
11424;BMP180;5768;51.476;7.210;2023-11-21T23:26:54;101188.00;;;10.10
11424;BMP180;5768;51.476;7.210;2023-11-21T23:31:57;101189.00;;;9.90
11424;BMP180;5768;51.476;7.210;2023-11-21T23:37:02;101201.00;;;9.80
11424;BMP180;5768;51.476;7.210;2023-11-21T23:42:05;101207.00;;;9.80
11424;BMP180;5768;51.476;7.210;2023-11-21T23:47:09;101213.00;;;9.80
11424;BMP180;5768;51.476;7.210;2023-11-21T23:52:11;101221.00;;;9.90
11424;BMP180;5768;51.476;7.210;2023-11-21T23:57:13;101224.00;;;10.00
